createdAt,value
2022-12-09T00:05:16.115Z,99514.94
2022-12-09T00:10:45.445Z,99514.22
2022-12-09T00:16:26.084Z,99518.47
2022-12-09T00:22:01.495Z,99517.84
2022-12-09T00:27:28.977Z,99523.84
2022-12-09T00:33:14.597Z,99521.16
2022-12-09T00:38:39.395Z,99521.16
2022-12-09T00:44:04.262Z,99519.28
2022-12-09T00:49:33.732Z,99516.38
2022-12-09T00:55:12.717Z,99508.63
2022-12-09T01:00:44.625Z,99512.44
2022-12-09T01:06:13.316Z,99515.25
2022-12-09T01:11:37.138Z,99518.47
2022-12-09T01:17:12.929Z,99517.41
2022-12-09T01:22:42.076Z,99524.97
2022-12-09T01:28:07.844Z,99526.81
2022-12-09T01:33:34.782Z,99526.50
2022-12-09T01:39:03.483Z,99527.44
2022-12-09T01:44:35.027Z,99523.09
2022-12-09T01:50:01.100Z,99525.56
2022-12-09T01:55:31.005Z,99521.31
2022-12-09T02:00:55.531Z,99519.59
2022-12-09T02:06:27.484Z,99519.59
2022-12-09T02:12:05.986Z,99519.19
2022-12-09T02:17:39.230Z,99513.88
2022-12-09T02:23:15.236Z,99512.94
2022-12-09T02:29:11.950Z,99503.75
2022-12-09T02:34:42.752Z,99511.00
2022-12-09T02:40:18.663Z,99502.75
2022-12-09T02:45:44.663Z,99501.81
2022-12-09T02:51:15.283Z,99502.63
2022-12-09T02:56:59.205Z,99501.91
2022-12-09T03:02:28.531Z,99495.00
2022-12-09T03:08:08.682Z,99486.31
2022-12-09T03:13:49.209Z,99482.09
2022-12-09T03:19:25.480Z,99479.06
2022-12-09T03:25:10.500Z,99479.16
2022-12-09T03:30:40.962Z,99471.63
2022-12-09T03:36:11.252Z,99471.13
2022-12-09T03:41:44.411Z,99476.06
2022-12-09T03:47:24.445Z,99470.91
2022-12-09T03:52:56.494Z,99478.78
2022-12-09T03:58:23.159Z,99472.44
2022-12-09T04:03:51.695Z,99467.28
2022-12-09T04:09:19.029Z,99467.06
2022-12-09T04:14:48.400Z,99461.28
2022-12-09T04:20:18.045Z,99456.94
2022-12-09T04:25:41.814Z,99447.53
2022-12-09T04:31:11.457Z,99455.28
2022-12-09T04:36:34.385Z,99454.34
2022-12-09T04:41:57.044Z,99453.84
2022-12-09T04:47:25.573Z,99451.16
2022-12-09T04:52:50.208Z,99449.00
2022-12-09T04:58:14.738Z,99450.28
2022-12-09T05:04:05.445Z,99451.63
2022-12-09T05:09:34.439Z,99442.53
2022-12-09T05:15:07.255Z,99445.53
2022-12-09T05:20:41.923Z,99439.66
2022-12-09T05:26:15.968Z,99437.38
2022-12-09T05:31:42.482Z,99446.19
2022-12-09T05:37:11.233Z,99449.28
2022-12-09T05:42:48.613Z,99451.94
2022-12-09T05:48:26.678Z,99442.03
2022-12-09T05:53:55.995Z,99439.66
2022-12-09T05:59:18.977Z,99436.03
2022-12-09T06:04:45.652Z,99441.59
2022-12-09T06:10:20.626Z,99443.78
2022-12-09T06:15:45.424Z,99444.28
2022-12-09T06:21:12.161Z,99438.16
2022-12-09T06:26:39.974Z,99441.88
2022-12-09T06:32:07.782Z,99440.84
2022-12-09T06:37:37.380Z,99437.38
2022-12-09T06:43:02.730Z,99435.41
2022-12-09T06:48:25.942Z,99439.72
2022-12-09T06:54:03.844Z,99451.06
2022-12-09T06:59:30.651Z,99453.78
2022-12-09T07:04:57.375Z,99454.00
2022-12-09T07:10:30.166Z,99452.13
2022-12-09T07:16:02.177Z,99457.16
2022-12-09T07:21:30.453Z,99455.28
2022-12-09T07:26:56.874Z,99449.81
2022-12-09T07:33:14.008Z,99463.03
2022-12-09T07:38:37.607Z,99458.59
2022-12-09T07:44:04.836Z,99460.97
2022-12-09T07:49:30.736Z,99463.53
2022-12-09T07:54:55.911Z,99464.03
2022-12-09T08:00:26.689Z,99467.25
2022-12-09T08:05:54.804Z,99458.16
2022-12-09T08:11:21.542Z,99466.53
2022-12-09T08:16:45.719Z,99473.13
2022-12-09T08:22:21.789Z,99472.09
2022-12-09T08:27:58.498Z,99475.56
2022-12-09T08:33:26.298Z,99471.22
2022-12-09T08:38:50.992Z,99467.72
2022-12-09T08:44:33.617Z,99471.81
2022-12-09T08:50:02.472Z,99468.31
2022-12-09T08:55:30.591Z,99466.00
2022-12-09T09:00:58.137Z,99456.06
2022-12-09T09:06:22.177Z,99466.28
2022-12-09T09:11:53.347Z,99464.56
2022-12-09T09:17:20.380Z,99466.81
2022-12-09T09:22:44.379Z,99455.84
2022-12-09T09:28:13.055Z,99462.97
2022-12-09T09:33:37.257Z,99448.78
2022-12-09T09:39:08.618Z,99437.31
2022-12-09T09:44:53.545Z,99434.09
2022-12-09T09:50:37.024Z,99431.84
2022-12-09T09:56:17.064Z,99425.13
2022-12-09T10:01:43.282Z,99414.78
2022-12-09T10:07:19.070Z,99405.97
2022-12-09T10:13:01.173Z,99405.59
2022-12-09T10:18:42.511Z,99401.69
2022-12-09T10:24:24.096Z,99384.78
2022-12-09T10:29:57.606Z,99385.94
2022-12-09T10:35:28.955Z,99392.91
2022-12-09T10:41:09.230Z,99368.38
2022-12-09T10:46:35.706Z,99369.50
2022-12-09T10:52:13.281Z,99351.03
2022-12-09T11:03:35.509Z,99348.44
2022-12-09T11:09:07.215Z,99349.63
2022-12-09T11:14:42.100Z,99345.81
2022-12-09T11:20:31.555Z,99350.63
2022-12-09T11:26:31.057Z,99346.28
2022-12-09T11:32:00.071Z,99346.97
2022-12-09T11:37:29.239Z,99346.50
2022-12-09T11:43:01.878Z,99351.69
2022-12-09T11:48:43.629Z,99347.91
2022-12-09T11:54:26.787Z,99344.25
2022-12-09T12:00:16.090Z,99353.41
2022-12-09T12:05:49.547Z,99343.97
2022-12-09T12:11:22.646Z,99352.75
2022-12-09T12:17:06.035Z,99350.91
2022-12-09T12:22:55.049Z,99355.47
2022-12-09T12:28:33.767Z,99353.50
2022-12-09T12:34:27.986Z,99353.69
2022-12-09T12:40:01.681Z,99346.56
2022-12-09T12:45:54.879Z,99342.25
2022-12-09T12:51:39.561Z,99342.06
2022-12-09T12:57:18.931Z,99335.72
2022-12-09T13:02:59.260Z,99335.13
2022-12-09T13:08:33.952Z,99333.00
2022-12-09T13:14:02.635Z,99329.19
2022-12-09T13:19:32.639Z,99321.19
2022-12-09T13:25:05.642Z,99319.94
2022-12-09T13:30:39.327Z,99318.56
2022-12-09T13:36:27.685Z,99308.31
2022-12-09T13:42:16.598Z,99318.13
2022-12-09T13:47:49.268Z,99321.56
2022-12-09T13:53:40.074Z,99312.63
2022-12-09T13:59:48.515Z,99315.66
2022-12-09T14:05:21.760Z,99312.56
2022-12-09T14:10:49.732Z,99306.94
2022-12-09T14:16:53.183Z,99300.00
2022-12-09T14:22:43.963Z,99307.53
2022-12-09T14:29:01.959Z,99309.28
2022-12-09T14:34:40.486Z,99310.44
2022-12-09T14:40:29.200Z,99318.44
2022-12-09T14:46:01.662Z,99326.66
2022-12-09T14:51:27.776Z,99315.06
2022-12-09T14:56:55.360Z,99311.06
2022-12-09T15:02:36.965Z,99311.25
2022-12-09T15:08:15.381Z,99314.91
2022-12-09T15:13:39.678Z,99307.72
2022-12-09T15:19:09.627Z,99300.41
2022-12-09T15:24:49.602Z,99301.75
2022-12-09T15:30:25.865Z,99311.31
2022-12-09T15:36:00.899Z,99309.81
2022-12-09T15:41:45.977Z,99309.91
2022-12-09T15:47:21.555Z,99321.41
2022-12-09T15:53:01.916Z,99316.09
2022-12-09T15:58:31.040Z,99335.03
2022-12-09T16:03:58.109Z,99327.28
2022-12-09T16:09:27.958Z,99320.94
2022-12-09T16:14:54.916Z,99336.47
2022-12-09T16:20:45.713Z,99330.56
2022-12-09T16:26:31.970Z,99315.50
2022-12-09T16:32:33.983Z,99314.25
2022-12-09T16:38:35.011Z,99308.75
2022-12-09T16:44:01.688Z,99308.75
2022-12-09T16:49:25.309Z,99317.34
2022-12-09T16:55:02.563Z,99336.34
2022-12-09T17:00:32.820Z,99322.72
2022-12-09T17:06:07.583Z,99320.72
2022-12-09T17:11:34.335Z,99318.28
2022-12-09T17:17:08.087Z,99309.44
2022-12-09T17:22:37.668Z,99314.63
2022-12-09T17:28:08.035Z,99319.06
2022-12-09T17:33:48.495Z,99315.56
2022-12-09T17:39:18.662Z,99327.06
2022-12-09T17:44:47.649Z,99318.69
2022-12-09T17:50:12.670Z,99325.00
2022-12-09T17:55:35.745Z,99331.03
2022-12-09T18:01:26.350Z,99337.00
2022-12-09T18:06:55.598Z,99336.19
2022-12-09T18:12:25.960Z,99343.72
2022-12-09T18:18:48.818Z,99344.72
2022-12-09T18:24:19.566Z,99350.94
2022-12-09T18:29:42.996Z,99359.50
2022-12-09T18:35:10.387Z,99354.84
2022-12-09T18:41:03.101Z,99362.16
2022-12-09T18:46:46.482Z,99366.72
2022-12-09T18:52:18.948Z,99359.06
2022-12-09T18:57:44.089Z,99363.84
2022-12-09T19:03:07.602Z,99358.06
2022-12-09T19:08:43.323Z,99358.38
2022-12-09T19:14:12.664Z,99355.38
2022-12-09T19:19:37.152Z,99360.34
2022-12-09T19:25:21.559Z,99352.09
2022-12-09T19:31:00.934Z,99357.88
2022-12-09T19:36:23.974Z,99364.47
2022-12-09T19:41:51.159Z,99360.38
2022-12-09T19:47:20.757Z,99360.59
2022-12-09T19:52:48.550Z,99367.59
2022-12-09T19:58:39.673Z,99375.56
2022-12-09T20:04:51.033Z,99375.34
2022-12-09T20:10:10.039Z,99383.22
2022-12-09T20:15:33.953Z,99379.72
2022-12-09T20:21:04.622Z,99392.31
2022-12-09T20:26:36.629Z,99392.44
2022-12-09T20:32:11.600Z,99390.66
2022-12-09T20:37:43.915Z,99391.72
2022-12-09T20:43:08.710Z,99389.13
2022-12-09T20:48:33.861Z,99388.00
2022-12-09T20:53:59.735Z,99398.63
2022-12-09T20:59:24.426Z,99394.91
2022-12-09T21:04:50.278Z,99399.34
2022-12-09T21:10:16.224Z,99404.41
2022-12-09T21:15:39.539Z,99394.31
2022-12-09T21:21:02.973Z,99397.09
2022-12-09T21:26:32.935Z,99400.59
2022-12-09T21:32:09.012Z,99406.59
2022-12-09T21:37:33.417Z,99399.47
2022-12-09T21:43:11.490Z,99399.47
2022-12-09T21:48:42.519Z,99414.16
2022-12-09T21:54:06.105Z,99413.84
2022-12-09T21:59:33.852Z,99424.06
2022-12-09T22:05:00.348Z,99426.03
2022-12-09T22:10:31.942Z,99430.28
2022-12-09T22:16:00.567Z,99426.03
2022-12-09T22:21:25.943Z,99412.69
2022-12-09T22:26:49.292Z,99418.78
2022-12-09T22:32:18.258Z,99422.19
2022-12-09T22:37:45.231Z,99426.13
2022-12-09T22:43:09.736Z,99430.44
2022-12-09T22:48:48.002Z,99425.72
2022-12-09T22:54:17.062Z,99430.06
2022-12-09T22:59:46.839Z,99433.59
2022-12-09T23:05:11.893Z,99431.00
2022-12-09T23:10:39.361Z,99432.03
2022-12-09T23:16:02.921Z,99424.78
2022-12-09T23:21:31.191Z,99431.91
2022-12-09T23:26:59.539Z,99441.50
2022-12-09T23:32:49.247Z,99446.78
2022-12-09T23:38:21.843Z,99456.88
2022-12-09T23:43:51.058Z,99452.97
2022-12-09T23:49:18.812Z,99452.06
2022-12-09T23:55:06.025Z,99453.41
